createdAt,value
2023-05-07T00:01:23.629Z,98307.13
2023-05-07T00:03:50.480Z,98302.50
2023-05-07T00:06:17.516Z,98311.50
2023-05-07T00:08:44.235Z,98315.88
2023-05-07T00:11:10.898Z,98317.53
2023-05-07T00:13:37.535Z,98312.41
2023-05-07T00:16:04.905Z,98316.56
2023-05-07T00:18:31.616Z,98311.16
2023-05-07T00:20:58.309Z,98312.81
2023-05-07T00:23:25.032Z,98310.28
2023-05-07T00:25:51.702Z,98315.75
2023-05-07T00:28:18.351Z,98317.81
2023-05-07T00:30:45.011Z,98311.94
2023-05-07T00:33:11.795Z,98316.16
2023-05-07T00:35:38.415Z,98320.78
2023-05-07T00:38:05.293Z,98313.88
2023-05-07T00:40:31.998Z,98308.69
2023-05-07T00:42:59.258Z,98300.13
2023-05-07T00:45:28.939Z,98301.91
2023-05-07T00:47:58.335Z,98299.59
2023-05-07T00:50:25.236Z,98300.63
2023-05-07T00:52:51.949Z,98301.91
2023-05-07T00:55:18.998Z,98295.00
2023-05-07T00:57:48.839Z,98293.91
2023-05-07T01:00:16.755Z,98285.84
2023-05-07T01:02:43.585Z,98280.56
2023-05-07T01:05:16.861Z,98272.50
2023-05-07T01:07:44.473Z,98281.59
2023-05-07T01:10:12.374Z,98276.88
2023-05-07T01:12:41.666Z,98281.72
2023-05-07T01:15:10.319Z,98278.66
2023-05-07T01:17:39.232Z,98281.63
2023-05-07T01:20:09.344Z,98272.72
2023-05-07T01:22:38.613Z,98275.22
2023-05-07T01:25:08.359Z,98279.91
2023-05-07T01:27:39.840Z,98277.47
2023-05-07T01:30:07.382Z,98270.19
2023-05-07T01:32:38.979Z,98272.75
2023-05-07T01:35:08.471Z,98266.00
2023-05-07T01:37:35.201Z,98273.72
2023-05-07T01:40:03.364Z,98270.19
2023-05-07T01:42:30.806Z,98276.31
2023-05-07T01:44:57.566Z,98278.53
2023-05-07T01:47:25.447Z,98272.25
2023-05-07T01:49:52.262Z,98271.63
2023-05-07T01:52:19.014Z,98276.75
2023-05-07T01:54:48.961Z,98272.06
2023-05-07T01:57:15.661Z,98269.84
2023-05-07T01:59:42.439Z,98278.94
2023-05-07T02:02:09.337Z,98283.03
2023-05-07T02:04:38.251Z,98278.41
2023-05-07T02:07:05.298Z,98279.91
2023-05-07T02:09:31.917Z,98280.72
2023-05-07T02:11:58.974Z,98278.03
2023-05-07T02:14:26.976Z,98277.38
2023-05-07T02:16:53.707Z,98272.91
2023-05-07T02:19:22.082Z,98274.88
2023-05-07T02:21:49.228Z,98270.78
2023-05-07T02:24:15.984Z,98271.63
2023-05-07T02:26:42.752Z,98267.44
2023-05-07T02:29:09.464Z,98275.13
2023-05-07T02:31:38.548Z,98281.69
2023-05-07T02:34:05.317Z,98282.75
2023-05-07T02:36:31.960Z,98286.34
2023-05-07T02:39:06.447Z,98277.44
2023-05-07T02:41:33.232Z,98284.75
2023-05-07T02:43:59.877Z,98277.28
2023-05-07T02:46:27.212Z,98278.16
2023-05-07T02:49:00.705Z,98278.56
2023-05-07T02:51:28.011Z,98279.13
2023-05-07T02:53:57.250Z,98280.97
2023-05-07T02:56:24.077Z,98285.44
2023-05-07T02:58:50.714Z,98288.25
2023-05-07T03:01:19.002Z,98287.38
2023-05-07T03:03:52.193Z,98288.13
2023-05-07T03:06:18.924Z,98279.44
2023-05-07T03:08:45.550Z,98276.56
2023-05-07T03:11:12.356Z,98274.41
2023-05-07T03:13:39.008Z,98275.88
2023-05-07T03:16:06.308Z,98271.25
2023-05-07T03:18:33.002Z,98263.72
2023-05-07T03:20:59.771Z,98269.44
2023-05-07T03:23:26.515Z,98261.63
2023-05-07T03:25:53.233Z,98267.94
2023-05-07T03:28:19.963Z,98270.72
2023-05-07T03:30:54.895Z,98255.06
2023-05-07T03:33:22.100Z,98267.25
2023-05-07T03:35:49.174Z,98265.06
2023-05-07T03:38:20.503Z,98265.06
2023-05-07T03:40:47.302Z,98260.94
2023-05-07T03:43:14.076Z,98257.28
2023-05-07T03:45:45.611Z,98257.13
2023-05-07T03:48:16.478Z,98262.66
2023-05-07T03:50:43.676Z,98257.06
2023-05-07T03:53:10.570Z,98266.06
2023-05-07T03:55:39.768Z,98265.28
2023-05-07T03:58:06.682Z,98264.22
2023-05-07T04:00:38.062Z,98260.44
2023-05-07T04:03:10.631Z,98269.59
2023-05-07T04:05:37.318Z,98268.88
2023-05-07T04:08:04.212Z,98271.56
2023-05-07T04:10:37.893Z,98276.19
2023-05-07T04:13:08.844Z,98270.84
2023-05-07T04:15:36.832Z,98278.72
2023-05-07T04:18:05.753Z,98265.28
2023-05-07T04:20:35.738Z,98271.38
2023-05-07T04:23:03.424Z,98260.19
2023-05-07T04:25:30.677Z,98259.84
2023-05-07T04:28:08.036Z,98264.31
2023-05-07T04:30:34.787Z,98263.34
2023-05-07T04:33:03.808Z,98273.56
2023-05-07T04:35:32.019Z,98266.53
2023-05-07T04:37:59.359Z,98265.66
2023-05-07T04:40:26.228Z,98268.13
2023-05-07T04:42:54.043Z,98264.09
2023-05-07T04:45:22.055Z,98259.47
2023-05-07T04:47:48.785Z,98262.84
2023-05-07T04:50:15.521Z,98256.34
2023-05-07T04:52:43.507Z,98256.09
2023-05-07T04:55:10.429Z,98263.84
2023-05-07T04:57:41.552Z,98259.75
2023-05-07T05:00:10.485Z,98254.03
2023-05-07T05:02:39.119Z,98261.66
2023-05-07T05:05:06.553Z,98257.03
2023-05-07T05:07:33.293Z,98263.19
2023-05-07T05:10:00.676Z,98269.19
2023-05-07T05:12:27.539Z,98273.28
2023-05-07T05:14:54.509Z,98271.09
2023-05-07T05:17:21.931Z,98289.09
2023-05-07T05:19:48.623Z,98292.38
2023-05-07T05:22:15.380Z,98290.13
2023-05-07T05:24:42.050Z,98297.16
2023-05-07T05:27:09.193Z,98288.53
2023-05-07T05:29:35.826Z,98290.03
2023-05-07T05:32:02.675Z,98288.16
2023-05-07T05:34:31.267Z,98296.88
2023-05-07T05:37:00.030Z,98295.28
2023-05-07T05:39:26.654Z,98300.19
2023-05-07T05:41:53.256Z,98302.16
2023-05-07T05:44:20.947Z,98305.19
2023-05-07T05:46:47.846Z,98303.34
2023-05-07T05:49:14.579Z,98308.16
2023-05-07T05:51:41.260Z,98310.63
2023-05-07T05:54:08.154Z,98304.94
2023-05-07T05:56:34.901Z,98308.47
2023-05-07T05:59:02.363Z,98308.94
2023-05-07T06:01:29.504Z,98309.75
2023-05-07T06:03:58.561Z,98302.00
2023-05-07T06:06:25.287Z,98309.97
2023-05-07T06:08:52.374Z,98314.22
2023-05-07T06:11:24.875Z,98305.94
2023-05-07T06:13:51.639Z,98310.25
2023-05-07T06:16:18.307Z,98312.28
2023-05-07T06:18:47.457Z,98307.19
2023-05-07T06:21:16.166Z,98313.25
2023-05-07T06:23:42.964Z,98316.78
2023-05-07T06:26:10.257Z,98316.88
2023-05-07T06:28:41.095Z,98307.72
2023-05-07T06:31:21.330Z,98316.44
2023-05-07T06:33:56.529Z,98319.25
2023-05-07T06:36:27.333Z,98316.56
2023-05-07T06:38:56.925Z,98319.75
2023-05-07T06:41:23.723Z,98330.09
2023-05-07T06:43:50.611Z,98316.41
2023-05-07T06:46:35.765Z,98316.69
2023-05-07T06:49:04.250Z,98323.66
2023-05-07T06:51:31.583Z,98332.31
2023-05-07T06:54:02.692Z,98340.00
2023-05-07T06:56:30.241Z,98340.59
2023-05-07T06:58:57.015Z,98342.25
2023-05-07T07:01:24.185Z,98330.09
2023-05-07T07:03:52.160Z,98327.41
2023-05-07T07:06:20.969Z,98332.09
2023-05-07T07:08:47.665Z,98330.03
2023-05-07T07:11:16.687Z,98335.22
2023-05-07T07:13:44.165Z,98329.88
2023-05-07T07:16:11.396Z,98333.63
2023-05-07T07:18:38.829Z,98336.59
2023-05-07T07:21:05.596Z,98339.09
2023-05-07T07:23:32.233Z,98333.97
2023-05-07T07:25:59.672Z,98335.00
2023-05-07T07:28:27.376Z,98335.78
2023-05-07T07:30:54.133Z,98340.41
2023-05-07T07:33:20.923Z,98341.81
2023-05-07T07:35:47.596Z,98336.44
2023-05-07T07:38:14.265Z,98336.28
2023-05-07T07:40:41.341Z,98333.19
2023-05-07T07:43:08.810Z,98335.22
2023-05-07T07:45:35.828Z,98335.66
2023-05-07T07:48:02.830Z,98335.34
2023-05-07T07:50:43.579Z,98341.47
2023-05-07T07:53:13.063Z,98341.19
2023-05-07T07:55:41.004Z,98339.34
2023-05-07T07:58:08.870Z,98342.25
2023-05-07T08:00:35.560Z,98335.28
2023-05-07T08:03:04.228Z,98340.09
2023-05-07T08:05:34.989Z,98343.91
2023-05-07T08:08:02.430Z,98339.63
2023-05-07T08:10:35.623Z,98342.34
2023-05-07T08:13:08.018Z,98336.84
2023-05-07T08:15:36.548Z,98343.09
2023-05-07T08:18:03.978Z,98347.00
2023-05-07T08:20:31.185Z,98339.44
2023-05-07T08:22:58.593Z,98337.81
2023-05-07T08:25:26.637Z,98338.34
2023-05-07T08:27:53.614Z,98353.22
2023-05-07T08:30:20.507Z,98335.31
2023-05-07T08:32:47.414Z,98324.88
2023-05-07T08:35:14.143Z,98342.66
2023-05-07T08:37:40.892Z,98341.25
2023-05-07T08:40:10.223Z,98337.50
2023-05-07T08:42:40.959Z,98337.09
2023-05-07T08:45:12.075Z,98338.75
2023-05-07T08:47:48.279Z,98336.72
2023-05-07T08:50:18.241Z,98342.56
2023-05-07T08:52:46.029Z,98335.78
2023-05-07T08:55:13.970Z,98333.28
2023-05-07T08:57:40.844Z,98326.09
2023-05-07T09:00:09.898Z,98319.66
2023-05-07T09:02:38.453Z,98315.97
2023-05-07T09:05:07.244Z,98306.41
2023-05-07T09:07:35.009Z,98304.38
2023-05-07T09:10:05.196Z,98300.09
2023-05-07T09:12:33.621Z,98288.69
2023-05-07T09:15:01.005Z,98282.94
2023-05-07T09:17:29.596Z,98273.53
2023-05-07T09:19:56.379Z,98266.56
2023-05-07T09:22:23.073Z,98265.63
2023-05-07T09:25:01.015Z,98258.06
2023-05-07T09:27:28.656Z,98261.66
2023-05-07T09:29:57.069Z,98265.47
2023-05-07T09:32:23.899Z,98261.63
2023-05-07T09:34:50.589Z,98261.44
2023-05-07T09:37:20.617Z,98260.97
2023-05-07T09:39:50.385Z,98271.19
2023-05-07T09:42:25.721Z,98271.13
2023-05-07T09:44:53.892Z,98270.91
2023-05-07T09:47:25.740Z,98266.78
2023-05-07T09:49:58.748Z,98267.00
2023-05-07T09:52:29.512Z,98271.44
2023-05-07T09:55:00.265Z,98271.09
2023-05-07T09:57:30.116Z,98257.56
2023-05-07T10:00:05.152Z,98247.16
2023-05-07T10:02:37.284Z,98252.13
2023-05-07T10:05:05.357Z,98260.09
2023-05-07T10:07:34.486Z,98255.09
2023-05-07T10:10:07.430Z,98253.59
2023-05-07T10:12:40.203Z,98252.88
2023-05-07T10:15:13.774Z,98255.31
2023-05-07T10:17:43.122Z,98251.22
2023-05-07T10:20:11.870Z,98256.09
2023-05-07T10:22:48.501Z,98257.47
2023-05-07T10:25:31.075Z,98262.16
2023-05-07T10:28:07.521Z,98253.00
2023-05-07T10:30:43.515Z,98246.19
2023-05-07T10:33:13.060Z,98254.09
2023-05-07T10:35:44.821Z,98244.22
2023-05-07T10:38:12.016Z,98241.53
2023-05-07T10:40:41.698Z,98235.22
2023-05-07T10:43:10.904Z,98242.97
2023-05-07T10:46:18.898Z,98243.03
2023-05-07T10:49:02.877Z,98246.41
2023-05-07T10:51:39.813Z,98254.03
2023-05-07T10:54:28.580Z,98255.13
2023-05-07T10:57:35.157Z,98263.59
2023-05-07T11:00:38.082Z,98272.41
2023-05-07T11:03:08.877Z,98269.31
2023-05-07T11:05:48.353Z,98275.56
2023-05-07T11:08:25.484Z,98283.38
2023-05-07T11:11:06.002Z,98280.34
2023-05-07T11:13:48.909Z,98276.81
2023-05-07T11:16:37.664Z,98279.00
2023-05-07T11:19:18.652Z,98284.81
2023-05-07T11:21:49.592Z,98282.84
2023-05-07T11:24:41.422Z,98290.97
2023-05-07T11:27:09.350Z,98293.75
2023-05-07T11:29:36.838Z,98300.97
2023-05-07T11:32:08.161Z,98296.78
2023-05-07T11:34:42.005Z,98296.22
2023-05-07T11:37:10.306Z,98304.06
2023-05-07T11:39:49.478Z,98300.59
2023-05-07T11:42:34.774Z,98286.00
2023-05-07T11:45:02.307Z,98283.78
2023-05-07T11:47:31.664Z,98276.16
2023-05-07T11:50:04.586Z,98285.00
2023-05-07T11:52:31.348Z,98289.59
2023-05-07T11:55:00.930Z,98281.63
2023-05-07T11:57:28.404Z,98292.34
2023-05-07T11:59:55.901Z,98296.19
2023-05-07T12:02:23.179Z,98312.47
2023-05-07T12:04:50.038Z,98310.00
2023-05-07T12:07:16.803Z,98314.84
2023-05-07T12:09:44.499Z,98324.28
2023-05-07T12:12:11.701Z,98326.38
2023-05-07T12:14:40.134Z,98328.19
2023-05-07T12:17:08.531Z,98336.69
2023-05-07T12:19:36.671Z,98336.97
2023-05-07T12:22:08.742Z,98337.41
2023-05-07T12:24:47.264Z,98342.13
2023-05-07T12:27:15.751Z,98347.53
2023-05-07T12:29:49.389Z,98344.84
2023-05-07T12:32:21.400Z,98341.78
2023-05-07T12:34:51.098Z,98345.22
2023-05-07T12:37:24.865Z,98340.66
2023-05-07T12:40:07.368Z,98348.28
2023-05-07T12:42:38.478Z,98348.66
2023-05-07T12:45:17.444Z,98346.88
2023-05-07T12:47:48.497Z,98347.81
2023-05-07T12:50:16.984Z,98346.94
2023-05-07T12:52:48.449Z,98357.50
2023-05-07T12:55:17.164Z,98357.75
2023-05-07T12:57:48.462Z,98355.28
2023-05-07T13:00:15.814Z,98353.81
2023-05-07T13:02:47.481Z,98352.84
2023-05-07T13:05:14.614Z,98365.25
2023-05-07T13:07:42.049Z,98371.47
2023-05-07T13:10:09.411Z,98366.84
2023-05-07T13:12:36.190Z,98367.31
2023-05-07T13:15:02.912Z,98366.63
2023-05-07T13:17:29.593Z,98373.50
2023-05-07T13:19:56.306Z,98369.44
2023-05-07T13:22:22.991Z,98362.91
2023-05-07T13:24:49.660Z,98370.16
2023-05-07T13:27:16.460Z,98363.53
2023-05-07T13:29:43.080Z,98360.09
2023-05-07T13:32:09.769Z,98367.22
2023-05-07T13:34:36.682Z,98367.69
2023-05-07T13:37:03.399Z,98370.97
2023-05-07T13:39:30.345Z,98384.81
2023-05-07T13:41:56.977Z,98394.28
2023-05-07T13:44:23.664Z,98396.16
2023-05-07T13:46:50.310Z,98387.59
2023-05-07T13:49:17.056Z,98395.34
2023-05-07T13:51:43.722Z,98392.47
2023-05-07T13:54:10.420Z,98396.91
2023-05-07T13:56:37.158Z,98391.59
2023-05-07T13:59:03.846Z,98391.88
2023-05-07T14:01:30.670Z,98392.00
2023-05-07T14:03:58.874Z,98384.63
2023-05-07T14:06:26.389Z,98389.13
2023-05-07T14:08:53.017Z,98389.03
2023-05-07T14:11:19.844Z,98394.59
2023-05-07T14:13:46.602Z,98389.47
2023-05-07T14:16:13.309Z,98388.91
2023-05-07T14:18:39.958Z,98388.00
2023-05-07T14:21:10.682Z,98392.72
2023-05-07T14:23:37.437Z,98387.63
2023-05-07T14:26:04.234Z,98393.97
2023-05-07T14:28:30.930Z,98385.34
2023-05-07T14:30:57.953Z,98393.00
2023-05-07T14:33:24.689Z,98386.66
2023-05-07T14:35:51.536Z,98383.03
2023-05-07T14:38:18.428Z,98387.38
2023-05-07T14:40:45.505Z,98389.59
2023-05-07T14:43:12.137Z,98390.50
2023-05-07T14:45:39.238Z,98383.06
2023-05-07T14:48:06.142Z,98389.09
2023-05-07T14:50:32.945Z,98386.34
2023-05-07T14:52:59.848Z,98386.31
2023-05-07T14:55:26.582Z,98380.94
2023-05-07T14:57:53.226Z,98382.34
2023-05-07T15:00:20.252Z,98379.47
2023-05-07T15:02:47.236Z,98395.53
2023-05-07T15:05:15.574Z,98387.56
2023-05-07T15:07:42.259Z,98395.56
2023-05-07T15:10:09.527Z,98394.84
2023-05-07T15:12:36.371Z,98403.19
2023-05-07T15:15:03.701Z,98405.81
2023-05-07T15:17:30.477Z,98404.59
2023-05-07T15:19:57.329Z,98399.94
2023-05-07T15:22:24.088Z,98394.22
2023-05-07T15:24:50.775Z,98396.19
2023-05-07T15:27:18.138Z,98400.09
2023-05-07T15:29:44.782Z,98399.22
2023-05-07T15:32:13.911Z,98405.78
2023-05-07T15:34:40.748Z,98406.56
2023-05-07T15:37:07.387Z,98407.44
2023-05-07T15:39:34.000Z,98407.31
2023-05-07T15:42:00.699Z,98408.69
2023-05-07T15:44:29.473Z,98400.72
2023-05-07T15:46:56.206Z,98414.22
2023-05-07T15:49:23.116Z,98401.50
2023-05-07T15:51:51.742Z,98411.66
2023-05-07T15:54:20.984Z,98411.50
2023-05-07T15:56:47.984Z,98420.25
2023-05-07T15:59:16.404Z,98418.50
2023-05-07T16:01:43.480Z,98417.66
2023-05-07T16:04:10.737Z,98423.47
2023-05-07T16:06:37.403Z,98426.41
2023-05-07T16:09:04.054Z,98423.28
2023-05-07T16:11:30.737Z,98413.59
2023-05-07T16:13:57.364Z,98419.47
2023-05-07T16:16:26.617Z,98418.34
2023-05-07T16:18:53.311Z,98413.31
2023-05-07T16:21:20.060Z,98423.50
2023-05-07T16:23:46.891Z,98422.72
2023-05-07T16:26:14.534Z,98418.19
2023-05-07T16:28:41.231Z,98426.84
2023-05-07T16:31:08.696Z,98431.19
2023-05-07T16:33:35.913Z,98434.31
2023-05-07T16:36:03.468Z,98438.47
2023-05-07T16:38:33.037Z,98431.88
2023-05-07T16:41:00.019Z,98425.28
2023-05-07T16:43:26.744Z,98431.56
2023-05-07T16:45:53.588Z,98429.84
2023-05-07T16:48:21.232Z,98428.00
2023-05-07T16:50:48.026Z,98433.84
2023-05-07T16:53:15.019Z,98430.28
2023-05-07T16:55:41.755Z,98437.19
2023-05-07T16:58:10.210Z,98443.03
2023-05-07T17:00:49.151Z,98443.22
2023-05-07T17:03:18.281Z,98434.91
2023-05-07T17:05:45.181Z,98437.28
2023-05-07T17:08:13.444Z,98441.28
2023-05-07T17:10:40.351Z,98442.16
2023-05-07T17:13:07.114Z,98445.59
2023-05-07T17:15:33.778Z,98444.72
2023-05-07T17:18:00.623Z,98448.72
2023-05-07T17:20:27.401Z,98447.94
2023-05-07T17:22:54.188Z,98440.00
2023-05-07T17:25:23.144Z,98446.88
2023-05-07T17:27:49.775Z,98444.41
2023-05-07T17:30:16.493Z,98439.69
2023-05-07T17:32:43.142Z,98440.72
2023-05-07T17:35:09.905Z,98448.84
2023-05-07T17:37:36.587Z,98448.84
2023-05-07T17:40:03.553Z,98443.03
2023-05-07T17:42:31.859Z,98454.63
2023-05-07T17:44:58.508Z,98458.78
2023-05-07T17:47:25.265Z,98451.88
2023-05-07T17:49:51.940Z,98456.19
2023-05-07T17:52:18.602Z,98457.16
2023-05-07T17:54:45.318Z,98468.88
2023-05-07T17:57:11.983Z,98470.03
2023-05-07T17:59:39.397Z,98477.16
2023-05-07T18:02:06.585Z,98477.59
2023-05-07T18:04:33.227Z,98476.00
2023-05-07T18:06:59.910Z,98478.69
2023-05-07T18:09:26.696Z,98484.69
2023-05-07T18:11:53.419Z,98482.94
2023-05-07T18:14:24.026Z,98483.22
2023-05-07T18:16:50.864Z,98484.00
2023-05-07T18:19:17.519Z,98496.47
2023-05-07T18:21:44.133Z,98494.41
2023-05-07T18:24:11.268Z,98499.19
2023-05-07T18:26:37.902Z,98503.84
2023-05-07T18:29:04.598Z,98505.28
2023-05-07T18:31:31.265Z,98511.03
2023-05-07T18:33:57.926Z,98515.75
2023-05-07T18:36:28.131Z,98526.06
2023-05-07T18:38:55.177Z,98526.41
2023-05-07T18:41:22.013Z,98516.44
2023-05-07T18:43:48.630Z,98528.06
2023-05-07T18:46:15.386Z,98535.56
2023-05-07T18:48:42.199Z,98533.63
2023-05-07T18:51:12.515Z,98537.19
2023-05-07T18:53:40.196Z,98540.00
2023-05-07T18:56:08.617Z,98551.50
2023-05-07T18:58:35.932Z,98546.31
2023-05-07T19:01:03.342Z,98553.91
2023-05-07T19:03:30.276Z,98550.38
2023-05-07T19:05:56.962Z,98551.59
2023-05-07T19:08:23.584Z,98545.66
2023-05-07T19:10:50.325Z,98546.13
2023-05-07T19:13:17.246Z,98550.56
2023-05-07T19:15:44.101Z,98554.59
2023-05-07T19:18:11.308Z,98551.69
2023-05-07T19:20:37.952Z,98550.63
2023-05-07T19:23:06.772Z,98552.78
2023-05-07T19:25:33.802Z,98549.22
2023-05-07T19:28:00.515Z,98557.16
2023-05-07T19:30:27.166Z,98554.53
2023-05-07T19:32:53.937Z,98566.00
2023-05-07T19:35:20.636Z,98565.81
2023-05-07T19:37:47.453Z,98567.34
2023-05-07T19:40:14.776Z,98564.47
2023-05-07T19:42:41.457Z,98568.63
2023-05-07T19:45:08.636Z,98568.41
2023-05-07T19:47:35.420Z,98576.03
2023-05-07T19:50:02.217Z,98580.19
2023-05-07T19:52:28.853Z,98585.56
2023-05-07T19:54:55.968Z,98583.88
2023-05-07T19:57:22.743Z,98591.31
2023-05-07T19:59:49.365Z,98593.75
2023-05-07T20:02:16.534Z,98582.41
2023-05-07T20:04:43.330Z,98594.19
2023-05-07T20:07:09.985Z,98595.13
2023-05-07T20:09:36.648Z,98591.69
2023-05-07T20:12:03.456Z,98593.44
2023-05-07T20:14:30.324Z,98592.91
2023-05-07T20:16:56.971Z,98589.19
2023-05-07T20:19:23.702Z,98594.75
2023-05-07T20:21:50.438Z,98595.78
2023-05-07T20:24:19.168Z,98596.75
2023-05-07T20:26:46.585Z,98594.34
2023-05-07T20:29:13.335Z,98602.97
2023-05-07T20:31:43.428Z,98605.50
2023-05-07T20:34:10.746Z,98609.06
2023-05-07T20:36:37.752Z,98616.34
2023-05-07T20:39:04.456Z,98618.50
2023-05-07T20:41:31.240Z,98623.31
2023-05-07T20:43:57.928Z,98629.09
2023-05-07T20:46:25.543Z,98629.88
2023-05-07T20:48:52.541Z,98629.25
2023-05-07T20:51:19.236Z,98624.03
2023-05-07T20:53:47.702Z,98629.41
2023-05-07T20:56:15.322Z,98629.19
2023-05-07T20:58:42.179Z,98621.44
2023-05-07T21:01:09.050Z,98626.19
2023-05-07T21:03:35.784Z,98633.31
2023-05-07T21:06:03.038Z,98636.41
2023-05-07T21:08:30.434Z,98629.84
2023-05-07T21:10:57.085Z,98636.59
2023-05-07T21:13:23.898Z,98638.47
2023-05-07T21:15:50.973Z,98645.66
2023-05-07T21:18:18.494Z,98640.09
2023-05-07T21:20:45.327Z,98641.38
2023-05-07T21:23:11.976Z,98643.56
2023-05-07T21:25:39.136Z,98649.78
2023-05-07T21:28:09.288Z,98650.72
2023-05-07T21:30:36.978Z,98651.22
2023-05-07T21:33:06.305Z,98653.31
2023-05-07T21:35:36.252Z,98657.56
2023-05-07T21:38:03.191Z,98661.72
2023-05-07T21:40:29.957Z,98658.34
2023-05-07T21:42:56.651Z,98659.22
2023-05-07T21:45:23.426Z,98645.63
2023-05-07T21:47:50.125Z,98653.94
2023-05-07T21:50:17.067Z,98661.81
2023-05-07T21:52:43.840Z,98659.22
2023-05-07T21:55:10.842Z,98665.44
2023-05-07T21:57:40.734Z,98661.28
2023-05-07T22:00:09.237Z,98671.31
2023-05-07T22:02:36.847Z,98663.34
2023-05-07T22:05:03.849Z,98660.31
2023-05-07T22:07:31.675Z,98659.91
2023-05-07T22:09:58.326Z,98659.78
2023-05-07T22:12:25.012Z,98650.00
2023-05-07T22:14:51.688Z,98663.69
2023-05-07T22:17:18.360Z,98656.34
2023-05-07T22:19:45.029Z,98661.22
2023-05-07T22:22:11.853Z,98663.88
2023-05-07T22:24:38.598Z,98656.09
2023-05-07T22:27:05.213Z,98660.50
2023-05-07T22:29:31.852Z,98662.34
2023-05-07T22:31:58.658Z,98663.50
2023-05-07T22:34:25.852Z,98663.63
2023-05-07T22:36:52.511Z,98661.41
2023-05-07T22:39:19.125Z,98664.47
2023-05-07T22:41:46.580Z,98666.91
2023-05-07T22:44:14.334Z,98665.78
2023-05-07T22:46:41.127Z,98668.75
2023-05-07T22:49:10.632Z,98668.41
2023-05-07T22:51:37.655Z,98667.22
2023-05-07T22:54:04.402Z,98678.41
2023-05-07T22:56:31.000Z,98672.16
2023-05-07T22:58:57.661Z,98673.97
2023-05-07T23:01:24.400Z,98671.72
2023-05-07T23:03:51.242Z,98673.38
2023-05-07T23:06:17.898Z,98675.00
2023-05-07T23:08:44.596Z,98675.00
2023-05-07T23:11:11.273Z,98672.88
2023-05-07T23:13:37.909Z,98675.66
2023-05-07T23:16:04.818Z,98674.94
2023-05-07T23:18:32.512Z,98675.19
2023-05-07T23:20:59.238Z,98672.50
2023-05-07T23:23:26.302Z,98668.16
2023-05-07T23:25:53.116Z,98669.03
2023-05-07T23:28:19.799Z,98675.75
2023-05-07T23:30:46.793Z,98672.75
2023-05-07T23:33:13.473Z,98678.72
2023-05-07T23:35:40.403Z,98675.81
2023-05-07T23:38:07.167Z,98677.00
2023-05-07T23:40:33.921Z,98678.19
2023-05-07T23:43:00.604Z,98678.97
2023-05-07T23:45:27.311Z,98671.81
2023-05-07T23:47:53.988Z,98680.41
2023-05-07T23:50:20.685Z,98682.28
2023-05-07T23:52:47.304Z,98668.09
2023-05-07T23:55:16.445Z,98672.81
2023-05-07T23:57:43.068Z,98665.44
